Lakeway's Hourly Summary for Tuesday, May 15, 2018
Hour Temp
(f)
RH
(%)
Solar Rad.
(MJ/m2)
Rainfall
(in)
Wind
(mph)
5/15/2018 12:00 AM 78 69 0 0 1.8
5/15/2018 1:00 AM 77 72 0 0 1.5
5/15/2018 2:00 AM 76 79 0 0 2.33
5/15/2018 3:00 AM 74 85 0 0 3.36
5/15/2018 4:00 AM 73 86 0 0 3.36
5/15/2018 5:00 AM 72 87 0 0 0.92
5/15/2018 6:00 AM 72 88 0.01 0 0.65
5/15/2018 7:00 AM 71 88 0.14 0 0.65
5/15/2018 8:00 AM 73 87 0.51 0 0.41
5/15/2018 9:00 AM 77 79 1.29 0 0.58
5/15/2018 10:00 AM 80 69 2.3 0 1
5/15/2018 11:00 AM 84 60 2.86 0 1.22
5/15/2018 12:00 PM 86 53 3.09 0 1.51
5/15/2018 1:00 PM 87 50 3.09 0 1.88
5/15/2018 2:00 PM 87 50 2.45 0 2.03
5/15/2018 3:00 PM 87 49 2.17 0 2.27
5/15/2018 4:00 PM 87 49 1.73 0 2.57
5/15/2018 5:00 PM 88 48 1.77 0 2.57
5/15/2018 6:00 PM 88 48 1.77 0 2.41
5/15/2018 7:00 PM 86 51 0.74 0.06 1.9
5/15/2018 8:00 PM 75 89 0.03 0.04 2.59
5/15/2018 9:00 PM 74 89 0 0 5.39
5/15/2018 10:00 PM 74 67 0 0 5.39
5/15/2018 11:00 PM 74 78 0 0 2.07
Data Summary 79 69 23.95 0.10 2.10